createdAt,value
2023-04-05T00:01:20.165Z,45.60
2023-04-05T00:03:48.744Z,45.70
2023-04-05T00:06:17.181Z,45.20
2023-04-05T00:08:50.004Z,44.90
2023-04-05T00:11:18.734Z,44.80
2023-04-05T00:13:48.460Z,44.90
2023-04-05T00:16:17.142Z,44.90
2023-04-05T00:18:50.054Z,45.20
2023-04-05T00:21:18.579Z,45.00
2023-04-05T00:23:46.889Z,45.10
2023-04-05T00:26:15.652Z,44.90
2023-04-05T00:28:44.002Z,45.30
2023-04-05T00:31:13.855Z,45.60
2023-04-05T00:33:42.109Z,45.50
2023-04-05T00:36:11.724Z,45.60
2023-04-05T00:38:40.957Z,45.30
2023-04-05T00:41:09.519Z,45.40
2023-04-05T00:43:37.832Z,45.90
2023-04-05T00:46:07.057Z,46.30
2023-04-05T00:48:37.552Z,45.90
2023-04-05T00:51:09.480Z,45.90
2023-04-05T00:53:38.652Z,46.60
2023-04-05T00:56:07.806Z,47.50
2023-04-05T00:58:36.960Z,46.20
2023-04-05T01:01:14.150Z,46.20
2023-04-05T01:03:48.030Z,46.40
2023-04-05T01:06:28.024Z,46.90
2023-04-05T01:09:06.515Z,47.00
2023-04-05T01:11:36.645Z,46.80
2023-04-05T01:14:05.125Z,46.80
2023-04-05T01:16:33.409Z,47.10
2023-04-05T01:19:04.006Z,47.10
2023-04-05T01:22:14.916Z,47.10
2023-04-05T01:25:19.558Z,47.20
2023-04-05T01:28:12.045Z,47.60
2023-04-05T01:30:45.454Z,47.20
2023-04-05T01:33:18.549Z,46.70
2023-04-05T01:35:52.166Z,46.50
2023-04-05T01:38:25.144Z,46.50
2023-04-05T01:40:54.548Z,46.50
2023-04-05T01:43:22.858Z,46.90
2023-04-05T01:45:52.602Z,47.20
2023-04-05T01:48:21.146Z,48.10
2023-04-05T01:50:49.429Z,47.70
2023-04-05T01:53:17.877Z,48.30
2023-04-05T01:55:46.241Z,48.00
2023-04-05T01:58:14.646Z,47.70
2023-04-05T02:00:43.248Z,47.60
2023-04-05T02:03:13.337Z,47.90
2023-04-05T02:05:41.667Z,47.60
2023-04-05T02:08:09.930Z,47.80
2023-04-05T02:10:38.225Z,48.00
2023-04-05T02:13:06.542Z,47.90
2023-04-05T02:15:34.868Z,47.90
2023-04-05T02:18:03.751Z,48.00
2023-04-05T02:20:34.728Z,48.00
2023-04-05T02:23:03.213Z,47.60
2023-04-05T02:25:31.477Z,47.80
2023-04-05T02:27:59.773Z,47.30
2023-04-05T02:30:29.084Z,47.20
2023-04-05T02:32:57.511Z,47.60
2023-04-05T02:35:26.061Z,47.10
2023-04-05T02:37:56.824Z,47.40
2023-04-05T02:40:25.468Z,47.50
2023-04-05T02:42:53.798Z,48.00
2023-04-05T02:45:22.111Z,48.00
2023-04-05T02:47:50.476Z,48.20
2023-04-05T02:50:20.691Z,48.20
2023-04-05T02:52:49.036Z,48.10
2023-04-05T02:55:19.118Z,47.80
2023-04-05T02:57:47.511Z,47.90
2023-04-05T03:00:17.100Z,47.90
2023-04-05T03:02:45.510Z,47.70
2023-04-05T03:05:14.170Z,47.80
2023-04-05T03:07:46.350Z,47.60
2023-04-05T03:10:18.734Z,47.30
2023-04-05T03:12:48.429Z,47.20
2023-04-05T03:15:17.144Z,47.30
2023-04-05T03:17:46.013Z,47.90
2023-04-05T03:20:14.937Z,48.30
2023-04-05T03:22:43.252Z,48.30
2023-04-05T03:25:11.563Z,48.20
2023-04-05T03:27:39.848Z,48.40
2023-04-05T03:30:11.119Z,48.40
2023-04-05T03:32:39.537Z,48.60
2023-04-05T03:35:08.295Z,48.90
2023-04-05T03:37:36.564Z,49.30
2023-04-05T03:40:06.644Z,49.30
2023-04-05T03:42:34.918Z,49.30
2023-04-05T03:45:03.325Z,48.80
2023-04-05T03:47:33.177Z,48.60
2023-04-05T03:50:02.675Z,48.50
2023-04-05T03:52:31.003Z,48.30
2023-04-05T03:54:59.315Z,48.20
2023-04-05T03:57:29.086Z,48.20
2023-04-05T03:59:57.447Z,47.80
2023-04-05T04:02:25.925Z,47.60
2023-04-05T04:04:55.760Z,47.60
2023-04-05T04:07:24.106Z,48.00
2023-04-05T04:09:52.385Z,47.90
2023-04-05T04:12:20.706Z,47.30
2023-04-05T04:14:48.923Z,47.30
2023-04-05T04:17:28.631Z,47.30
2023-04-05T04:19:58.930Z,47.90
2023-04-05T04:22:33.223Z,48.10
2023-04-05T04:25:04.535Z,48.10
2023-04-05T04:27:36.137Z,48.20
2023-04-05T04:30:05.632Z,48.30
2023-04-05T04:35:29.327Z,48.10
2023-04-05T04:37:59.140Z,48.00
2023-04-05T04:40:32.544Z,48.20
2023-04-05T04:43:01.746Z,47.50
2023-04-05T04:45:34.863Z,47.40
2023-04-05T04:48:05.034Z,47.40
2023-04-05T04:50:35.127Z,47.50
2023-04-05T04:53:03.609Z,47.70
2023-04-05T04:55:33.585Z,48.10
2023-04-05T04:58:01.931Z,48.00
2023-04-05T05:00:30.257Z,47.90
2023-04-05T05:02:58.495Z,48.00
2023-04-05T05:05:27.589Z,48.60
2023-04-05T05:07:57.352Z,49.00
2023-04-05T05:10:25.846Z,48.30
2023-04-05T05:12:54.118Z,48.50
2023-04-05T05:15:22.651Z,49.20
2023-04-05T05:17:53.236Z,49.20
2023-04-05T05:20:22.062Z,49.20
2023-04-05T05:22:51.292Z,49.20
2023-04-05T05:25:21.708Z,49.20
2023-04-05T05:27:51.149Z,49.20
2023-04-05T05:30:21.115Z,49.20
2023-04-05T05:32:49.522Z,49.20
2023-04-05T05:35:18.282Z,48.80
2023-04-05T05:37:46.680Z,49.20
2023-04-05T05:40:16.541Z,49.90
2023-04-05T05:42:46.320Z,50.30
2023-04-05T05:45:14.765Z,50.30
2023-04-05T05:47:43.476Z,50.10
2023-04-05T05:50:12.757Z,49.90
2023-04-05T05:52:41.028Z,49.20
2023-04-05T05:55:09.962Z,48.50
2023-04-05T05:57:39.030Z,48.70
2023-04-05T06:00:10.656Z,48.90
2023-04-05T06:02:39.205Z,49.20
2023-04-05T06:05:08.962Z,49.10
2023-04-05T06:07:38.344Z,49.20
2023-04-05T06:10:07.713Z,49.10
2023-04-05T06:12:36.434Z,48.70
2023-04-05T06:15:05.021Z,48.40
2023-04-05T06:17:40.310Z,48.20
2023-04-05T06:20:10.889Z,48.70
2023-04-05T06:22:40.438Z,48.00
2023-04-05T06:25:10.281Z,48.10
2023-04-05T06:27:38.534Z,48.60
2023-04-05T06:30:08.201Z,48.40
2023-04-05T06:32:37.979Z,48.90
2023-04-05T06:35:07.594Z,48.70
2023-04-05T06:37:36.028Z,48.50
2023-04-05T06:40:04.666Z,48.40
2023-04-05T06:42:32.873Z,48.30
2023-04-05T06:45:01.096Z,48.10
2023-04-05T06:47:29.393Z,48.10
2023-04-05T06:49:59.100Z,48.10
2023-04-05T06:52:27.392Z,48.00
2023-04-05T06:54:56.300Z,48.10
2023-04-05T06:57:24.627Z,48.90
2023-04-05T06:59:52.997Z,48.80
2023-04-05T07:02:21.400Z,48.70
2023-04-05T07:04:50.264Z,48.50
2023-04-05T07:07:19.987Z,48.30
2023-04-05T07:09:48.409Z,48.10
2023-04-05T07:12:16.791Z,48.70
2023-04-05T07:14:45.014Z,48.50
2023-04-05T07:17:13.281Z,48.70
2023-04-05T07:19:41.501Z,48.80
2023-04-05T07:22:09.910Z,48.60
2023-04-05T07:24:39.548Z,48.20
2023-04-05T07:27:07.862Z,48.60
2023-04-05T07:29:40.754Z,48.40
2023-04-05T07:32:09.700Z,48.20
2023-04-05T07:34:38.536Z,48.30
2023-04-05T07:37:07.553Z,48.40
2023-04-05T07:39:35.913Z,48.20
2023-04-05T07:42:05.866Z,48.40
2023-04-05T07:44:34.172Z,48.70
2023-04-05T07:47:04.081Z,48.70
2023-04-05T07:49:32.394Z,48.80
2023-04-05T07:52:00.881Z,48.50
2023-04-05T07:54:29.147Z,48.20
2023-04-05T07:56:58.199Z,48.00
2023-04-05T07:59:27.904Z,48.10
2023-04-05T08:02:01.760Z,48.20
2023-04-05T08:04:33.202Z,48.40
2023-04-05T08:07:01.681Z,47.60
2023-04-05T08:09:30.076Z,47.70
2023-04-05T08:11:58.506Z,48.10
2023-04-05T08:14:28.215Z,48.00
2023-04-05T08:16:56.620Z,47.70
2023-04-05T08:19:24.946Z,47.20
2023-04-05T08:21:54.286Z,47.00
2023-04-05T08:24:22.579Z,47.00
2023-04-05T08:26:51.018Z,46.80
2023-04-05T08:29:19.315Z,46.30
2023-04-05T08:31:49.052Z,45.80
2023-04-05T08:34:17.453Z,46.00
2023-04-05T08:36:47.126Z,46.90
2023-04-05T08:39:16.972Z,47.20
2023-04-05T08:41:53.337Z,46.60
2023-04-05T08:44:27.138Z,46.30
2023-04-05T08:46:59.412Z,46.30
2023-04-05T08:49:27.823Z,46.50
2023-04-05T08:51:56.752Z,46.40
2023-04-05T08:54:25.019Z,46.30
2023-04-05T08:56:55.051Z,46.70
2023-04-05T08:59:24.784Z,47.20
2023-04-05T09:01:53.701Z,47.60
2023-04-05T09:04:24.567Z,47.40
2023-04-05T09:06:53.446Z,47.70
2023-04-05T09:09:23.955Z,48.40
2023-04-05T09:11:52.471Z,48.70
2023-04-05T09:14:21.535Z,48.80
2023-04-05T09:16:49.975Z,48.80
2023-04-05T09:19:18.390Z,49.20
2023-04-05T09:22:04.991Z,48.90
2023-04-05T09:24:39.918Z,48.20
2023-04-05T09:27:10.284Z,48.00
2023-04-05T09:29:39.581Z,48.60
2023-04-05T09:32:09.153Z,48.90
2023-04-05T09:34:38.076Z,49.60
2023-04-05T09:37:14.935Z,50.20
2023-04-05T09:39:43.932Z,50.00
2023-04-05T09:42:15.617Z,50.40
2023-04-05T09:44:51.578Z,50.30
2023-04-05T09:47:21.395Z,49.90
2023-04-05T09:49:49.829Z,49.50
2023-04-05T09:52:27.245Z,49.90
2023-04-05T09:54:56.797Z,50.20
2023-04-05T09:57:26.551Z,49.90
2023-04-05T09:59:55.694Z,49.20
2023-04-05T10:02:24.626Z,49.00
2023-04-05T10:04:53.316Z,49.00
2023-04-05T10:07:21.725Z,48.70
2023-04-05T10:09:51.346Z,48.70
2023-04-05T10:12:27.053Z,49.00
2023-04-05T10:14:56.975Z,49.00
2023-04-05T10:17:29.538Z,49.20
2023-04-05T10:20:06.311Z,49.00
2023-04-05T10:22:37.952Z,48.80
2023-04-05T10:25:14.532Z,49.00
2023-04-05T10:27:49.763Z,49.40
2023-04-05T10:30:18.979Z,49.30
2023-04-05T10:33:02.470Z,49.60
2023-04-05T10:35:36.677Z,49.60
2023-04-05T10:38:18.813Z,49.40
2023-04-05T10:40:49.512Z,49.20
2023-04-05T10:43:22.022Z,48.30
2023-04-05T10:45:53.662Z,48.30
2023-04-05T10:48:43.167Z,47.30
2023-04-05T10:51:12.712Z,46.50
2023-04-05T10:53:42.532Z,46.70
2023-04-05T10:56:13.322Z,47.60
2023-04-05T10:58:42.473Z,47.70
2023-04-05T11:01:11.638Z,47.90
2023-04-05T11:03:46.275Z,47.70
2023-04-05T11:06:32.462Z,48.70
2023-04-05T11:09:02.915Z,49.40
2023-04-05T11:11:40.584Z,49.60
2023-04-05T11:14:21.091Z,49.70
2023-04-05T11:16:53.570Z,49.90
2023-04-05T11:19:22.377Z,50.20
2023-04-05T11:22:03.161Z,49.80
2023-04-05T11:24:52.523Z,49.40
2023-04-05T11:27:27.175Z,49.40
2023-04-05T11:29:56.340Z,48.30
2023-04-05T11:32:25.238Z,48.40
2023-04-05T11:35:01.268Z,48.10
2023-04-05T11:37:55.264Z,48.00
2023-04-05T11:40:28.539Z,48.00
2023-04-05T11:43:05.947Z,47.90
2023-04-05T11:45:35.284Z,47.80
2023-04-05T11:48:07.376Z,46.80
2023-04-05T11:50:36.946Z,46.50
2023-04-05T11:53:15.571Z,46.20
2023-04-05T11:55:45.651Z,45.80
2023-04-05T11:58:16.880Z,45.00
2023-04-05T12:00:46.512Z,44.20
2023-04-05T12:03:15.491Z,44.40
2023-04-05T12:05:50.925Z,44.00
2023-04-05T12:08:19.773Z,43.90
2023-04-05T12:10:56.156Z,44.10
2023-04-05T12:13:30.475Z,44.10
2023-04-05T12:16:03.314Z,42.90
2023-04-05T12:18:33.453Z,41.60
2023-04-05T12:21:06.413Z,40.80
2023-04-05T12:23:36.027Z,40.40
2023-04-05T12:26:05.777Z,41.30
2023-04-05T12:28:54.108Z,41.70
2023-04-05T12:31:39.709Z,41.80
2023-04-05T12:34:08.346Z,42.20
2023-04-05T12:36:37.489Z,40.30
2023-04-05T12:39:09.534Z,40.50
2023-04-05T12:41:38.305Z,40.10
2023-04-05T12:44:16.738Z,39.50
2023-04-05T12:46:46.428Z,40.20
2023-04-05T12:49:17.222Z,39.80
2023-04-05T12:51:46.203Z,38.80
2023-04-05T12:54:15.431Z,39.20
2023-04-05T12:56:43.745Z,39.30
2023-04-05T12:59:12.181Z,39.50
2023-04-05T13:01:42.083Z,38.90
2023-04-05T13:04:16.254Z,38.50
2023-04-05T13:06:47.444Z,37.20
2023-04-05T13:09:16.325Z,37.60
2023-04-05T13:11:44.594Z,37.50
2023-04-05T13:14:12.882Z,36.60
2023-04-05T13:16:42.667Z,35.10
2023-04-05T13:19:11.094Z,35.00
2023-04-05T13:21:39.455Z,35.30
2023-04-05T13:24:08.836Z,34.90
2023-04-05T13:26:37.824Z,35.10
2023-04-05T13:29:06.137Z,34.00
2023-04-05T13:31:34.693Z,33.70
2023-04-05T13:34:04.714Z,34.30
2023-04-05T13:36:33.012Z,35.30
2023-04-05T13:39:01.280Z,35.60
2023-04-05T13:41:30.402Z,35.40
2023-04-05T13:44:01.545Z,35.30
2023-04-05T13:46:31.148Z,34.80
2023-04-05T13:48:59.496Z,34.90
2023-04-05T13:51:32.253Z,34.60
2023-04-05T13:54:00.617Z,34.40
2023-04-05T13:56:28.928Z,34.30
2023-04-05T13:58:57.253Z,34.50
2023-04-05T14:01:25.621Z,32.80
2023-04-05T14:03:54.044Z,33.00
2023-04-05T14:06:22.606Z,33.90
2023-04-05T14:09:15.335Z,32.40
2023-04-05T14:11:59.148Z,31.70
2023-04-05T14:14:27.636Z,31.50
2023-04-05T14:16:55.993Z,31.80
2023-04-05T14:19:24.385Z,31.60
2023-04-05T14:21:53.769Z,30.90
2023-04-05T14:24:23.536Z,30.90
2023-04-05T14:26:51.980Z,30.20
2023-04-05T14:29:20.493Z,29.50
2023-04-05T14:31:49.556Z,30.20
2023-04-05T14:34:19.210Z,30.60
2023-04-05T14:36:47.619Z,29.90
2023-04-05T14:39:15.975Z,29.10
2023-04-05T14:41:50.248Z,28.60
2023-04-05T14:44:18.631Z,28.50
2023-04-05T14:46:47.796Z,29.30
2023-04-05T14:49:17.352Z,29.20
2023-04-05T14:51:46.051Z,28.50
2023-04-05T14:54:14.563Z,28.60
2023-04-05T14:56:42.963Z,28.40
2023-04-05T14:59:12.842Z,27.80
2023-04-05T15:01:44.479Z,28.10
2023-04-05T15:04:14.184Z,27.10
2023-04-05T15:06:42.795Z,26.20
2023-04-05T15:09:11.220Z,26.20
2023-04-05T15:11:40.364Z,26.20
2023-04-05T15:14:15.369Z,26.30
2023-04-05T15:16:51.105Z,26.70
2023-04-05T15:19:19.595Z,27.20
2023-04-05T15:21:48.014Z,27.90
2023-04-05T15:24:16.419Z,27.70
2023-04-05T15:26:44.807Z,28.20
2023-04-05T15:29:13.235Z,28.70
2023-04-05T15:31:41.972Z,29.20
2023-04-05T15:34:11.934Z,28.90
2023-04-05T15:36:40.877Z,28.80
2023-04-05T15:39:09.410Z,28.90
2023-04-05T15:41:37.866Z,28.30
2023-04-05T15:44:06.396Z,28.30
2023-04-05T15:46:34.849Z,28.90
2023-04-05T15:49:03.704Z,28.10
2023-04-05T15:51:35.133Z,28.40
2023-04-05T15:54:04.180Z,28.60
2023-04-05T15:56:32.578Z,29.30
2023-04-05T15:59:01.215Z,29.90
2023-04-05T16:01:29.973Z,30.30
2023-04-05T16:03:58.529Z,30.80
2023-04-05T16:06:28.348Z,31.20
2023-04-05T16:08:58.162Z,31.20
2023-04-05T16:11:27.270Z,31.10
2023-04-05T16:13:56.979Z,30.60
2023-04-05T16:16:35.123Z,30.70
2023-04-05T16:19:08.168Z,30.60
2023-04-05T16:21:36.658Z,30.60
2023-04-05T16:24:07.638Z,31.10
2023-04-05T16:26:36.305Z,31.20
2023-04-05T16:29:05.194Z,30.70
2023-04-05T16:31:35.823Z,31.30
2023-04-05T16:34:04.387Z,31.10
2023-04-05T16:36:33.286Z,30.30
2023-04-05T16:39:02.070Z,30.60
2023-04-05T16:41:32.294Z,30.50
2023-04-05T16:44:00.626Z,30.50
2023-04-05T16:46:32.218Z,30.70
2023-04-05T16:49:01.253Z,30.90
2023-04-05T16:51:29.927Z,31.30
2023-04-05T16:53:58.450Z,31.40
2023-04-05T16:56:27.064Z,31.10
2023-04-05T16:58:57.657Z,31.20
2023-04-05T17:01:26.721Z,31.10
2023-04-05T17:03:55.360Z,30.80
2023-04-05T17:06:23.728Z,31.60
2023-04-05T17:08:52.192Z,32.10
2023-04-05T17:11:20.635Z,32.10
2023-04-05T17:13:49.140Z,31.90
2023-04-05T17:16:19.082Z,32.30
2023-04-05T17:18:47.671Z,32.20
2023-04-05T17:21:17.089Z,31.60
2023-04-05T17:23:45.554Z,31.80
2023-04-05T17:26:13.947Z,32.40
2023-04-05T17:28:42.444Z,33.00
2023-04-05T17:31:11.952Z,33.70
2023-04-05T17:33:41.967Z,34.00
2023-04-05T17:36:10.525Z,34.10
2023-04-05T17:38:39.099Z,34.20
2023-04-05T17:41:07.903Z,34.30
2023-04-05T17:43:36.333Z,34.20
2023-04-05T17:46:05.182Z,34.60
2023-04-05T17:48:34.116Z,34.50
2023-04-05T17:51:08.946Z,34.40
2023-04-05T17:53:37.595Z,34.30
2023-04-05T17:56:06.282Z,34.10
2023-04-05T17:58:34.823Z,34.10
2023-04-05T18:01:03.392Z,34.50
2023-04-05T18:03:32.004Z,35.10
2023-04-05T18:06:00.451Z,35.40
2023-04-05T18:08:30.438Z,36.90
2023-04-05T18:10:59.944Z,38.00
2023-04-05T18:13:29.351Z,38.20
2023-04-05T18:15:58.768Z,39.20
2023-04-05T18:18:28.730Z,39.50
2023-04-05T18:21:01.908Z,38.90
2023-04-05T18:23:31.810Z,38.30
2023-04-05T18:26:06.102Z,38.30
2023-04-05T18:28:34.576Z,37.70
2023-04-05T18:31:03.031Z,38.20
2023-04-05T18:33:31.444Z,39.00
2023-04-05T18:35:59.789Z,39.10
2023-04-05T18:38:28.286Z,39.00
2023-04-05T18:41:03.324Z,39.50
2023-04-05T18:43:32.184Z,39.50
2023-04-05T18:46:00.756Z,39.50
2023-04-05T18:48:29.253Z,39.30
2023-04-05T18:50:57.665Z,39.50
2023-04-05T18:53:26.600Z,39.70
2023-04-05T18:55:56.018Z,39.60
2023-04-05T18:58:26.128Z,39.80
2023-04-05T19:00:54.486Z,39.90
2023-04-05T19:03:23.149Z,40.10
2023-04-05T19:05:52.413Z,40.30
2023-04-05T19:08:21.275Z,39.90
2023-04-05T19:10:49.671Z,39.80
2023-04-05T19:13:18.015Z,40.10
2023-04-05T19:15:48.043Z,40.70
2023-04-05T19:18:16.526Z,40.90
2023-04-05T19:20:44.977Z,41.00
2023-04-05T19:23:13.342Z,41.20
2023-04-05T19:25:41.786Z,41.30
2023-04-05T19:28:10.137Z,41.50
2023-04-05T19:30:41.506Z,41.80
2023-04-05T19:33:11.607Z,42.20
2023-04-05T19:35:40.147Z,42.20
2023-04-05T19:38:08.891Z,42.30
2023-04-05T19:40:38.819Z,42.20
2023-04-05T19:43:07.944Z,41.90
2023-04-05T19:45:37.218Z,42.20
2023-04-05T19:48:35.966Z,42.40
2023-04-05T19:51:05.663Z,42.60
2023-04-05T19:53:41.392Z,42.80
2023-04-05T19:56:12.273Z,42.90
2023-04-05T19:58:41.021Z,43.20
2023-04-05T20:01:10.317Z,43.30
2023-04-05T20:03:41.345Z,43.40
2023-04-05T20:06:11.207Z,43.50
2023-04-05T20:08:41.566Z,43.50
2023-04-05T20:11:12.890Z,43.50
2023-04-05T20:13:44.998Z,43.30
2023-04-05T20:16:14.523Z,43.20
2023-04-05T20:18:47.511Z,43.40
2023-04-05T20:21:16.901Z,43.20
2023-04-05T20:23:46.085Z,43.40
2023-04-05T20:26:16.031Z,43.60
2023-04-05T20:28:54.639Z,43.60
2023-04-05T20:31:25.724Z,43.50
2023-04-05T20:34:03.039Z,43.20
2023-04-05T20:36:34.050Z,43.10
2023-04-05T20:39:03.349Z,43.00
2023-04-05T20:41:32.685Z,42.90
2023-04-05T20:44:01.330Z,43.00
2023-04-05T20:46:29.891Z,42.90
2023-04-05T20:48:59.861Z,43.30
2023-04-05T20:51:28.327Z,43.40
2023-04-05T20:53:57.098Z,43.40
2023-04-05T20:56:25.679Z,43.30
2023-04-05T20:58:55.058Z,43.20
2023-04-05T21:01:23.586Z,43.40
2023-04-05T21:03:53.177Z,43.50
2023-04-05T21:06:23.016Z,43.70
2023-04-05T21:08:51.408Z,43.70
2023-04-05T21:11:19.860Z,43.00
2023-04-05T21:13:48.217Z,43.00
2023-04-05T21:16:16.703Z,43.00
2023-04-05T21:18:45.148Z,42.90
2023-04-05T21:21:13.508Z,43.20
2023-04-05T21:23:44.359Z,43.50
2023-04-05T21:26:12.757Z,43.00
2023-04-05T21:28:41.184Z,42.80
2023-04-05T21:31:09.579Z,42.90
2023-04-05T21:33:38.078Z,42.80
2023-04-05T21:36:06.720Z,43.00
2023-04-05T21:38:35.211Z,43.10
2023-04-05T21:41:05.296Z,43.70
2023-04-05T21:43:33.908Z,43.40
2023-04-05T21:46:02.318Z,44.00
2023-04-05T21:48:30.736Z,43.80
2023-04-05T21:50:59.135Z,43.70
2023-04-05T21:53:27.526Z,44.40
2023-04-05T21:55:55.962Z,45.10
2023-04-05T21:58:26.537Z,45.20
2023-04-05T22:03:23.391Z,45.40
2023-04-05T22:05:51.812Z,45.40
2023-04-05T22:08:20.225Z,45.30
2023-04-05T22:10:48.720Z,45.00
2023-04-05T22:13:17.074Z,45.00
2023-04-05T22:15:47.629Z,45.40
2023-04-05T22:18:16.000Z,45.30
2023-04-05T22:20:44.441Z,45.20
2023-04-05T22:23:12.867Z,45.20
2023-04-05T22:25:41.360Z,45.20
2023-04-05T22:28:09.841Z,45.40
2023-04-05T22:30:43.585Z,45.50
2023-04-05T22:33:14.478Z,45.30
2023-04-05T22:35:43.191Z,44.80
2023-04-05T22:38:11.696Z,44.60
2023-04-05T22:40:40.237Z,44.80
2023-04-05T22:43:09.672Z,44.80
2023-04-05T22:45:38.089Z,45.10
2023-04-05T22:48:07.235Z,44.60
2023-04-05T22:50:37.095Z,44.50
2023-04-05T22:53:05.613Z,44.60
2023-04-05T22:55:34.014Z,44.80
2023-04-05T22:58:02.353Z,45.20
2023-04-05T23:00:30.818Z,45.40
2023-04-05T23:02:59.227Z,45.50
2023-04-05T23:05:27.721Z,45.00
2023-04-05T23:07:57.586Z,44.30
2023-04-05T23:10:26.120Z,44.40
2023-04-05T23:12:54.509Z,44.40
2023-04-05T23:15:23.032Z,44.60
2023-04-05T23:17:51.801Z,44.50
2023-04-05T23:20:20.406Z,44.50
2023-04-05T23:22:48.778Z,44.60
2023-04-05T23:25:18.835Z,44.60
2023-04-05T23:27:47.308Z,45.10
2023-04-05T23:30:15.999Z,45.60
2023-04-05T23:32:44.406Z,45.40
2023-04-05T23:35:12.801Z,45.40
2023-04-05T23:37:41.204Z,45.30
2023-04-05T23:40:10.753Z,45.30
2023-04-05T23:42:40.610Z,45.40
2023-04-05T23:45:10.667Z,45.40
2023-04-05T23:47:39.263Z,45.50
2023-04-05T23:50:09.256Z,45.60
2023-04-05T23:52:37.664Z,45.60
2023-04-05T23:55:06.960Z,45.10
2023-04-05T23:57:35.687Z,45.00
